sensor_id;sensor_type;location;lat;lon;timestamp;pressure;altitude;pressure_sealevel;temperature;humidity
80693;BME280;70055;39.436;-77.514;2023-09-08T00:01:25;98791.99;;;19.96;64.00
80693;BME280;70055;39.436;-77.514;2023-09-08T00:03:53;98795.02;;;20.40;62.97
80693;BME280;70055;39.436;-77.514;2023-09-08T00:06:23;98798.23;;;20.69;62.02
80693;BME280;70055;39.436;-77.514;2023-09-08T00:08:51;98798.78;;;19.26;64.14
80693;BME280;70055;39.436;-77.514;2023-09-08T00:11:19;98800.19;;;20.92;61.69
80693;BME280;70055;39.436;-77.514;2023-09-08T00:13:48;98795.92;;;21.07;61.40
80693;BME280;70055;39.436;-77.514;2023-09-08T00:16:18;98797.38;;;21.93;58.34
80693;BME280;70055;39.436;-77.514;2023-09-08T00:18:46;98802.61;;;21.28;58.66
80693;BME280;70055;39.436;-77.514;2023-09-08T00:21:14;98810.95;;;21.83;57.83
80693;BME280;70055;39.436;-77.514;2023-09-08T00:23:43;98813.82;;;22.73;55.58
80693;BME280;70055;39.436;-77.514;2023-09-08T00:26:16;98819.90;;;21.72;56.74
80693;BME280;70055;39.436;-77.514;2023-09-08T00:28:45;98826.22;;;21.38;57.99
80693;BME280;70055;39.436;-77.514;2023-09-08T00:31:13;98834.84;;;21.75;56.79
80693;BME280;70055;39.436;-77.514;2023-09-08T00:33:42;98843.29;;;23.05;54.09
80693;BME280;70055;39.436;-77.514;2023-09-08T00:36:10;98842.23;;;22.74;54.80
80693;BME280;70055;39.436;-77.514;2023-09-08T00:38:39;98839.26;;;23.52;52.47
80693;BME280;70055;39.436;-77.514;2023-09-08T00:41:07;98843.14;;;24.30;50.52
80693;BME280;70055;39.436;-77.514;2023-09-08T00:43:35;98845.37;;;24.11;50.71
80693;BME280;70055;39.436;-77.514;2023-09-08T00:46:04;98852.12;;;23.03;52.78
80693;BME280;70055;39.436;-77.514;2023-09-08T00:48:33;98852.79;;;23.13;51.88
80693;BME280;70055;39.436;-77.514;2023-09-08T00:51:02;98853.14;;;23.78;51.87
80693;BME280;70055;39.436;-77.514;2023-09-08T00:53:31;98854.55;;;23.48;52.15
80693;BME280;70055;39.436;-77.514;2023-09-08T00:55:59;98859.61;;;23.13;53.84
80693;BME280;70055;39.436;-77.514;2023-09-08T00:58:27;98855.36;;;24.06;51.80
80693;BME280;70055;39.436;-77.514;2023-09-08T01:00:56;98858.38;;;23.84;52.68
80693;BME280;70055;39.436;-77.514;2023-09-08T01:03:24;98862.15;;;23.41;52.15
80693;BME280;70055;39.436;-77.514;2023-09-08T01:05:52;98861.99;;;23.97;51.23
80693;BME280;70055;39.436;-77.514;2023-09-08T01:08:21;98868.49;;;23.52;51.93
80693;BME280;70055;39.436;-77.514;2023-09-08T01:10:49;98879.54;;;22.25;54.93
80693;BME280;70055;39.436;-77.514;2023-09-08T01:13:18;98881.92;;;22.58;55.22
80693;BME280;70055;39.436;-77.514;2023-09-08T01:15:46;98889.95;;;23.15;53.97
80693;BME280;70055;39.436;-77.514;2023-09-08T01:18:14;98892.79;;;23.17;53.30
80693;BME280;70055;39.436;-77.514;2023-09-08T01:20:55;98895.80;;;23.08;53.22
80693;BME280;70055;39.436;-77.514;2023-09-08T01:23:37;98893.22;;;22.82;54.14
80693;BME280;70055;39.436;-77.514;2023-09-08T01:26:16;98890.44;;;22.42;54.81
80693;BME280;70055;39.436;-77.514;2023-09-08T01:28:49;98884.29;;;24.02;52.18
80693;BME280;70055;39.436;-77.514;2023-09-08T01:31:18;98885.24;;;23.20;53.78
80693;BME280;70055;39.436;-77.514;2023-09-08T01:33:47;98884.34;;;22.52;55.07
80693;BME280;70055;39.436;-77.514;2023-09-08T01:36:16;98885.13;;;23.07;54.00
80693;BME280;70055;39.436;-77.514;2023-09-08T01:38:45;98886.13;;;22.56;55.16
80693;BME280;70055;39.436;-77.514;2023-09-08T01:41:14;98890.69;;;22.85;54.29
80693;BME280;70055;39.436;-77.514;2023-09-08T01:43:43;98895.07;;;21.76;57.06
80693;BME280;70055;39.436;-77.514;2023-09-08T01:46:12;98899.15;;;22.30;56.27
80693;BME280;70055;39.436;-77.514;2023-09-08T01:48:40;98906.50;;;22.58;55.60
80693;BME280;70055;39.436;-77.514;2023-09-08T01:51:10;98912.21;;;22.32;55.28
80693;BME280;70055;39.436;-77.514;2023-09-08T01:53:38;98902.28;;;21.60;56.66
80693;BME280;70055;39.436;-77.514;2023-09-08T01:56:07;98902.64;;;22.14;56.09
80693;BME280;70055;39.436;-77.514;2023-09-08T01:58:35;98907.73;;;22.36;56.49
80693;BME280;70055;39.436;-77.514;2023-09-08T02:01:03;98920.01;;;21.46;57.54
80693;BME280;70055;39.436;-77.514;2023-09-08T02:03:31;98928.64;;;22.51;55.72
80693;BME280;70055;39.436;-77.514;2023-09-08T02:05:58;98935.52;;;23.30;54.13
80693;BME280;70055;39.436;-77.514;2023-09-08T02:08:26;98935.41;;;23.15;54.91
80693;BME280;70055;39.436;-77.514;2023-09-08T02:10:54;98935.51;;;21.82;56.93
80693;BME280;70055;39.436;-77.514;2023-09-08T02:13:23;98944.33;;;22.42;55.48
80693;BME280;70055;39.436;-77.514;2023-09-08T02:15:53;98942.45;;;22.49;55.65
80693;BME280;70055;39.436;-77.514;2023-09-08T02:18:21;98945.29;;;22.61;54.90
80693;BME280;70055;39.436;-77.514;2023-09-08T02:20:49;98950.07;;;22.26;55.76
80693;BME280;70055;39.436;-77.514;2023-09-08T02:23:17;98954.86;;;22.06;56.42
80693;BME280;70055;39.436;-77.514;2023-09-08T02:25:45;98961.35;;;22.57;54.98
80693;BME280;70055;39.436;-77.514;2023-09-08T02:28:13;98969.59;;;22.59;54.37
80693;BME280;70055;39.436;-77.514;2023-09-08T02:30:40;98969.08;;;21.92;55.77
80693;BME280;70055;39.436;-77.514;2023-09-08T02:33:09;98972.73;;;21.25;58.66
80693;BME280;70055;39.436;-77.514;2023-09-08T02:35:38;98972.60;;;21.47;57.35
80693;BME280;70055;39.436;-77.514;2023-09-08T02:38:06;98974.25;;;22.30;56.14
80693;BME280;70055;39.436;-77.514;2023-09-08T02:40:35;98975.91;;;22.25;56.29
80693;BME280;70055;39.436;-77.514;2023-09-08T02:43:04;98975.23;;;22.60;55.14
80693;BME280;70055;39.436;-77.514;2023-09-08T02:45:32;98973.51;;;22.89;54.61
80693;BME280;70055;39.436;-77.514;2023-09-08T02:48:00;98971.40;;;21.11;58.63
80693;BME280;70055;39.436;-77.514;2023-09-08T02:50:28;98971.92;;;22.69;54.92
80693;BME280;70055;39.436;-77.514;2023-09-08T02:52:56;98970.82;;;22.70;55.03
80693;BME280;70055;39.436;-77.514;2023-09-08T02:55:25;98966.47;;;22.67;54.67
80693;BME280;70055;39.436;-77.514;2023-09-08T02:57:53;98968.84;;;22.30;55.92
80693;BME280;70055;39.436;-77.514;2023-09-08T03:00:21;98973.16;;;22.18;55.99
80693;BME280;70055;39.436;-77.514;2023-09-08T03:02:50;98975.26;;;21.78;56.53
80693;BME280;70055;39.436;-77.514;2023-09-08T03:05:19;98976.01;;;21.01;59.60
80693;BME280;70055;39.436;-77.514;2023-09-08T03:07:48;98970.19;;;22.27;56.97
80693;BME280;70055;39.436;-77.514;2023-09-08T03:10:16;98963.54;;;21.09;58.84
80693;BME280;70055;39.436;-77.514;2023-09-08T03:12:44;98963.14;;;22.49;56.36
80693;BME280;70055;39.436;-77.514;2023-09-08T03:15:12;98952.55;;;22.57;55.85
80693;BME280;70055;39.436;-77.514;2023-09-08T03:17:40;98956.06;;;20.90;58.73
80693;BME280;70055;39.436;-77.514;2023-09-08T03:20:10;98951.09;;;22.47;55.59
80693;BME280;70055;39.436;-77.514;2023-09-08T03:22:38;98950.14;;;22.80;54.24
80693;BME280;70055;39.436;-77.514;2023-09-08T03:25:07;98951.48;;;22.73;55.27
80693;BME280;70055;39.436;-77.514;2023-09-08T03:27:36;98953.80;;;21.52;57.39
80693;BME280;70055;39.436;-77.514;2023-09-08T03:30:05;98950.71;;;22.24;56.01
80693;BME280;70055;39.436;-77.514;2023-09-08T03:32:33;98955.17;;;23.12;53.98
80693;BME280;70055;39.436;-77.514;2023-09-08T03:35:00;98957.79;;;22.08;56.70
80693;BME280;70055;39.436;-77.514;2023-09-08T03:37:29;98959.22;;;21.96;56.80
80693;BME280;70055;39.436;-77.514;2023-09-08T03:39:57;98960.46;;;23.63;53.60
80693;BME280;70055;39.436;-77.514;2023-09-08T03:42:25;98965.74;;;21.49;58.40
80693;BME280;70055;39.436;-77.514;2023-09-08T03:44:53;98960.56;;;20.90;59.84
80693;BME280;70055;39.436;-77.514;2023-09-08T03:47:21;98960.27;;;20.93;60.69
80693;BME280;70055;39.436;-77.514;2023-09-08T03:49:51;98958.62;;;22.01;57.74
80693;BME280;70055;39.436;-77.514;2023-09-08T03:52:19;98959.20;;;22.68;55.98
80693;BME280;70055;39.436;-77.514;2023-09-08T03:54:47;98962.31;;;22.17;55.90
80693;BME280;70055;39.436;-77.514;2023-09-08T03:57:16;98965.27;;;22.09;57.25
80693;BME280;70055;39.436;-77.514;2023-09-08T03:59:45;98961.87;;;22.65;55.92
80693;BME280;70055;39.436;-77.514;2023-09-08T04:02:12;98966.36;;;22.90;54.53
80693;BME280;70055;39.436;-77.514;2023-09-08T04:04:40;98964.48;;;21.70;57.06
80693;BME280;70055;39.436;-77.514;2023-09-08T04:07:09;98964.49;;;20.86;59.80
80693;BME280;70055;39.436;-77.514;2023-09-08T04:09:37;98960.49;;;21.17;58.54
80693;BME280;70055;39.436;-77.514;2023-09-08T04:12:08;98956.00;;;21.59;57.89
80693;BME280;70055;39.436;-77.514;2023-09-08T04:14:36;98950.12;;;22.49;55.50
80693;BME280;70055;39.436;-77.514;2023-09-08T04:17:04;98961.94;;;22.38;55.61
80693;BME280;70055;39.436;-77.514;2023-09-08T04:19:33;98966.61;;;22.99;53.53
80693;BME280;70055;39.436;-77.514;2023-09-08T04:22:00;98966.75;;;19.84;61.93
80693;BME280;70055;39.436;-77.514;2023-09-08T04:24:29;98965.58;;;20.50;60.37
80693;BME280;70055;39.436;-77.514;2023-09-08T04:26:57;98974.26;;;20.30;61.64
80693;BME280;70055;39.436;-77.514;2023-09-08T04:29:25;98981.73;;;20.58;60.56
80693;BME280;70055;39.436;-77.514;2023-09-08T04:31:52;98979.64;;;21.40;57.76
80693;BME280;70055;39.436;-77.514;2023-09-08T04:34:20;98981.33;;;21.57;57.30
80693;BME280;70055;39.436;-77.514;2023-09-08T04:36:48;98987.78;;;21.74;56.07
80693;BME280;70055;39.436;-77.514;2023-09-08T04:39:16;98992.56;;;21.83;56.24
80693;BME280;70055;39.436;-77.514;2023-09-08T04:41:44;99006.95;;;19.57;62.69
80693;BME280;70055;39.436;-77.514;2023-09-08T04:44:11;99011.73;;;20.82;59.43
80693;BME280;70055;39.436;-77.514;2023-09-08T04:46:40;99014.22;;;20.58;60.12
80693;BME280;70055;39.436;-77.514;2023-09-08T04:49:08;99017.22;;;20.59;59.40
80693;BME280;70055;39.436;-77.514;2023-09-08T04:51:37;99023.05;;;21.14;57.92
80693;BME280;70055;39.436;-77.514;2023-09-08T04:54:06;99020.63;;;21.39;57.53
80693;BME280;70055;39.436;-77.514;2023-09-08T04:56:34;99021.50;;;21.91;57.52
80693;BME280;70055;39.436;-77.514;2023-09-08T04:59:03;99021.85;;;21.52;57.30
80693;BME280;70055;39.436;-77.514;2023-09-08T05:01:32;99016.25;;;21.59;56.63
80693;BME280;70055;39.436;-77.514;2023-09-08T05:04:00;99016.86;;;21.97;55.43
80693;BME280;70055;39.436;-77.514;2023-09-08T05:06:28;99006.81;;;21.70;55.84
80693;BME280;70055;39.436;-77.514;2023-09-08T05:08:56;99007.63;;;19.78;61.92
80693;BME280;70055;39.436;-77.514;2023-09-08T05:11:23;99005.85;;;19.46;63.02
80693;BME280;70055;39.436;-77.514;2023-09-08T05:13:52;98997.13;;;20.06;61.85
80693;BME280;70055;39.436;-77.514;2023-09-08T05:16:21;98993.58;;;19.45;63.80
80693;BME280;70055;39.436;-77.514;2023-09-08T05:18:49;98978.66;;;20.21;59.89
80693;BME280;70055;39.436;-77.514;2023-09-08T05:21:19;98977.47;;;21.75;57.66
80693;BME280;70055;39.436;-77.514;2023-09-08T05:23:47;98984.10;;;21.60;57.03
80693;BME280;70055;39.436;-77.514;2023-09-08T05:26:15;98992.82;;;21.74;56.72
80693;BME280;70055;39.436;-77.514;2023-09-08T05:28:43;98985.26;;;22.11;56.10
80693;BME280;70055;39.436;-77.514;2023-09-08T05:31:11;98981.87;;;20.64;59.90
80693;BME280;70055;39.436;-77.514;2023-09-08T05:33:39;98984.37;;;20.46;60.05
80693;BME280;70055;39.436;-77.514;2023-09-08T05:36:07;98994.58;;;20.76;59.76
80693;BME280;70055;39.436;-77.514;2023-09-08T05:38:35;99001.25;;;21.69;57.62
80693;BME280;70055;39.436;-77.514;2023-09-08T05:41:03;99008.83;;;20.86;59.54
80693;BME280;70055;39.436;-77.514;2023-09-08T05:43:31;99007.05;;;21.46;58.33
80693;BME280;70055;39.436;-77.514;2023-09-08T05:45:59;99014.21;;;22.07;56.87
80693;BME280;70055;39.436;-77.514;2023-09-08T05:48:27;99022.93;;;22.57;55.72
80693;BME280;70055;39.436;-77.514;2023-09-08T05:50:56;99035.14;;;21.06;58.51
80693;BME280;70055;39.436;-77.514;2023-09-08T05:53:24;99042.53;;;20.61;60.77
80693;BME280;70055;39.436;-77.514;2023-09-08T05:55:52;99034.59;;;21.21;58.96
80693;BME280;70055;39.436;-77.514;2023-09-08T05:58:20;99024.47;;;22.13;57.29
80693;BME280;70055;39.436;-77.514;2023-09-08T06:00:48;99021.48;;;21.41;57.66
80693;BME280;70055;39.436;-77.514;2023-09-08T06:03:15;99017.73;;;19.95;62.14
80693;BME280;70055;39.436;-77.514;2023-09-08T06:05:43;99010.89;;;20.63;60.02
80693;BME280;70055;39.436;-77.514;2023-09-08T06:08:11;99005.82;;;20.07;61.21
80693;BME280;70055;39.436;-77.514;2023-09-08T06:10:39;98998.31;;;20.81;59.76
80693;BME280;70055;39.436;-77.514;2023-09-08T06:13:06;98993.17;;;21.55;57.89
80693;BME280;70055;39.436;-77.514;2023-09-08T06:15:34;98992.71;;;21.97;55.82
80693;BME280;70055;39.436;-77.514;2023-09-08T06:18:03;98990.90;;;21.90;56.18
80693;BME280;70055;39.436;-77.514;2023-09-08T06:20:31;98989.13;;;22.87;55.09
80693;BME280;70055;39.436;-77.514;2023-09-08T06:22:59;98991.20;;;21.53;57.18
80693;BME280;70055;39.436;-77.514;2023-09-08T06:25:28;98997.71;;;21.57;57.37
80693;BME280;70055;39.436;-77.514;2023-09-08T06:27:55;99000.65;;;22.34;55.73
80693;BME280;70055;39.436;-77.514;2023-09-08T06:30:23;99011.85;;;20.92;57.72
80693;BME280;70055;39.436;-77.514;2023-09-08T06:32:52;99015.61;;;21.14;57.24
80693;BME280;70055;39.436;-77.514;2023-09-08T06:35:20;99017.03;;;21.38;57.87
80693;BME280;70055;39.436;-77.514;2023-09-08T06:37:48;99022.52;;;21.13;58.10
80693;BME280;70055;39.436;-77.514;2023-09-08T06:40:16;99026.97;;;21.53;56.72
80693;BME280;70055;39.436;-77.514;2023-09-08T06:42:44;99033.76;;;20.34;59.60
80693;BME280;70055;39.436;-77.514;2023-09-08T06:45:13;99037.71;;;21.88;56.02
80693;BME280;70055;39.436;-77.514;2023-09-08T06:47:40;99043.08;;;20.79;58.80
80693;BME280;70055;39.436;-77.514;2023-09-08T06:50:08;99049.83;;;21.34;57.14
80693;BME280;70055;39.436;-77.514;2023-09-08T06:52:37;99051.12;;;21.25;57.30
80693;BME280;70055;39.436;-77.514;2023-09-08T06:55:06;99050.22;;;19.92;60.42
80693;BME280;70055;39.436;-77.514;2023-09-08T06:57:35;99046.51;;;20.08;59.69
80693;BME280;70055;39.436;-77.514;2023-09-08T07:00:04;99047.81;;;20.85;57.63
80693;BME280;70055;39.436;-77.514;2023-09-08T07:02:32;99051.40;;;20.98;56.81
80693;BME280;70055;39.436;-77.514;2023-09-08T07:05:00;99051.70;;;19.59;60.83
80693;BME280;70055;39.436;-77.514;2023-09-08T07:07:28;99059.95;;;18.84;64.04
80693;BME280;70055;39.436;-77.514;2023-09-08T07:09:55;99061.85;;;19.00;63.73
80693;BME280;70055;39.436;-77.514;2023-09-08T07:12:24;99057.91;;;21.18;57.92
80693;BME280;70055;39.436;-77.514;2023-09-08T07:14:51;99061.07;;;20.86;57.89
80693;BME280;70055;39.436;-77.514;2023-09-08T07:17:20;99074.99;;;19.06;63.78
80693;BME280;70055;39.436;-77.514;2023-09-08T07:19:49;99075.34;;;20.20;60.65
80693;BME280;70055;39.436;-77.514;2023-09-08T07:22:17;99072.02;;;20.32;60.01
80693;BME280;70055;39.436;-77.514;2023-09-08T07:24:45;99063.88;;;19.96;61.33
80693;BME280;70055;39.436;-77.514;2023-09-08T07:27:12;99059.44;;;19.13;64.20
80693;BME280;70055;39.436;-77.514;2023-09-08T07:29:41;99055.58;;;19.12;63.51
80693;BME280;70055;39.436;-77.514;2023-09-08T07:32:08;99051.41;;;19.49;63.31
80693;BME280;70055;39.436;-77.514;2023-09-08T07:34:37;99042.89;;;20.83;59.40
80693;BME280;70055;39.436;-77.514;2023-09-08T07:37:05;99031.95;;;21.00;58.19
80693;BME280;70055;39.436;-77.514;2023-09-08T07:39:32;99023.48;;;21.06;57.26
80693;BME280;70055;39.436;-77.514;2023-09-08T07:42:01;99022.97;;;21.08;57.86
80693;BME280;70055;39.436;-77.514;2023-09-08T07:44:29;99019.09;;;21.39;57.51
80693;BME280;70055;39.436;-77.514;2023-09-08T07:46:57;99011.39;;;21.81;56.88
80693;BME280;70055;39.436;-77.514;2023-09-08T07:49:26;99012.44;;;20.79;57.94
80693;BME280;70055;39.436;-77.514;2023-09-08T07:51:54;99014.50;;;21.52;56.47
80693;BME280;70055;39.436;-77.514;2023-09-08T07:54:22;99013.21;;;21.52;56.69
80693;BME280;70055;39.436;-77.514;2023-09-08T07:56:50;99014.01;;;21.35;57.18
80693;BME280;70055;39.436;-77.514;2023-09-08T07:59:18;99021.28;;;21.04;58.20
80693;BME280;70055;39.436;-77.514;2023-09-08T08:01:46;99029.32;;;21.24;56.87
80693;BME280;70055;39.436;-77.514;2023-09-08T08:04:14;99043.67;;;21.25;56.92
80693;BME280;70055;39.436;-77.514;2023-09-08T08:06:42;99045.55;;;20.66;57.38
80693;BME280;70055;39.436;-77.514;2023-09-08T08:09:11;99044.89;;;20.88;56.82
80693;BME280;70055;39.436;-77.514;2023-09-08T08:11:39;99041.82;;;20.46;58.05
80693;BME280;70055;39.436;-77.514;2023-09-08T08:14:07;99039.87;;;21.76;55.43
80693;BME280;70055;39.436;-77.514;2023-09-08T08:16:35;99039.25;;;21.35;56.16
80693;BME280;70055;39.436;-77.514;2023-09-08T08:19:03;99040.24;;;21.04;56.66
80693;BME280;70055;39.436;-77.514;2023-09-08T08:21:31;99043.56;;;20.96;57.42
80693;BME280;70055;39.436;-77.514;2023-09-08T08:24:00;99051.48;;;20.91;57.60
80693;BME280;70055;39.436;-77.514;2023-09-08T08:26:28;99060.89;;;21.22;56.59
80693;BME280;70055;39.436;-77.514;2023-09-08T08:28:55;99067.66;;;21.65;56.13
80693;BME280;70055;39.436;-77.514;2023-09-08T08:31:24;99077.68;;;21.43;56.63
80693;BME280;70055;39.436;-77.514;2023-09-08T08:33:52;99082.66;;;21.07;57.27
80693;BME280;70055;39.436;-77.514;2023-09-08T08:36:20;99090.87;;;21.48;56.85
80693;BME280;70055;39.436;-77.514;2023-09-08T08:38:48;99097.06;;;21.03;55.87
80693;BME280;70055;39.436;-77.514;2023-09-08T08:41:16;99099.50;;;21.51;54.52
80693;BME280;70055;39.436;-77.514;2023-09-08T08:43:44;99097.74;;;21.09;55.37
80693;BME280;70055;39.436;-77.514;2023-09-08T08:46:13;99107.63;;;19.63;59.35
80693;BME280;70055;39.436;-77.514;2023-09-08T08:48:42;99110.07;;;19.67;59.83
80693;BME280;70055;39.436;-77.514;2023-09-08T08:51:11;99112.59;;;21.09;57.64
80693;BME280;70055;39.436;-77.514;2023-09-08T08:53:39;99122.65;;;19.32;61.80
80693;BME280;70055;39.436;-77.514;2023-09-08T08:56:09;99124.76;;;19.77;61.36
80693;BME280;70055;39.436;-77.514;2023-09-08T08:58:39;99124.46;;;20.70;57.51
80693;BME280;70055;39.436;-77.514;2023-09-08T09:01:07;99126.29;;;20.94;57.45
80693;BME280;70055;39.436;-77.514;2023-09-08T09:03:40;99129.73;;;20.59;56.72
80693;BME280;70055;39.436;-77.514;2023-09-08T09:06:09;99130.66;;;20.42;56.89
80693;BME280;70055;39.436;-77.514;2023-09-08T09:08:38;99134.60;;;19.39;59.49
80693;BME280;70055;39.436;-77.514;2023-09-08T09:11:06;99141.28;;;18.87;62.26
80693;BME280;70055;39.436;-77.514;2023-09-08T09:13:35;99144.98;;;18.61;64.47
80693;BME280;70055;39.436;-77.514;2023-09-08T09:16:03;99140.47;;;19.54;61.49
80693;BME280;70055;39.436;-77.514;2023-09-08T09:18:32;99136.30;;;20.50;59.24
80693;BME280;70055;39.436;-77.514;2023-09-08T09:21:01;99138.75;;;20.63;58.71
80693;BME280;70055;39.436;-77.514;2023-09-08T09:23:30;99149.80;;;19.44;62.08
80693;BME280;70055;39.436;-77.514;2023-09-08T09:26:00;99152.87;;;20.27;59.74
80693;BME280;70055;39.436;-77.514;2023-09-08T09:28:30;99157.73;;;20.61;58.08
80693;BME280;70055;39.436;-77.514;2023-09-08T09:30:58;99153.59;;;21.04;56.71
80693;BME280;70055;39.436;-77.514;2023-09-08T09:33:26;99158.71;;;19.07;60.58
80693;BME280;70055;39.436;-77.514;2023-09-08T09:35:56;99159.49;;;19.28;61.07
80693;BME280;70055;39.436;-77.514;2023-09-08T09:38:27;99160.94;;;20.64;57.99
80693;BME280;70055;39.436;-77.514;2023-09-08T09:40:56;99159.67;;;20.98;56.01
80693;BME280;70055;39.436;-77.514;2023-09-08T09:43:23;99164.04;;;20.99;55.95
80693;BME280;70055;39.436;-77.514;2023-09-08T09:45:51;99168.84;;;20.93;56.05
80693;BME280;70055;39.436;-77.514;2023-09-08T09:48:21;99178.02;;;20.00;59.22
80693;BME280;70055;39.436;-77.514;2023-09-08T09:50:49;99183.44;;;19.89;60.45
80693;BME280;70055;39.436;-77.514;2023-09-08T09:53:19;99186.01;;;19.52;60.70
80693;BME280;70055;39.436;-77.514;2023-09-08T09:55:48;99191.40;;;20.34;58.67
80693;BME280;70055;39.436;-77.514;2023-09-08T09:58:16;99190.89;;;20.42;57.86
80693;BME280;70055;39.436;-77.514;2023-09-08T10:00:47;99184.67;;;20.32;57.73
80693;BME280;70055;39.436;-77.514;2023-09-08T10:03:15;99177.86;;;19.21;60.42
80693;BME280;70055;39.436;-77.514;2023-09-08T10:05:45;99176.14;;;18.69;61.29
80693;BME280;70055;39.436;-77.514;2023-09-08T10:08:13;99170.87;;;19.22;60.93
80693;BME280;70055;39.436;-77.514;2023-09-08T10:10:42;99171.62;;;19.49;60.09
80693;BME280;70055;39.436;-77.514;2023-09-08T10:13:14;99174.07;;;20.32;58.79
80693;BME280;70055;39.436;-77.514;2023-09-08T10:15:45;99172.60;;;19.86;59.28
80693;BME280;70055;39.436;-77.514;2023-09-08T10:18:16;99173.28;;;19.31;62.07
80693;BME280;70055;39.436;-77.514;2023-09-08T10:20:45;99172.61;;;19.73;58.83
80693;BME280;70055;39.436;-77.514;2023-09-08T10:23:23;99178.50;;;20.57;56.88
80693;BME280;70055;39.436;-77.514;2023-09-08T10:25:55;99175.68;;;20.97;56.37
80693;BME280;70055;39.436;-77.514;2023-09-08T10:28:25;99179.82;;;20.61;56.36
80693;BME280;70055;39.436;-77.514;2023-09-08T10:30:54;99176.75;;;20.42;57.76
80693;BME280;70055;39.436;-77.514;2023-09-08T10:33:24;99174.21;;;20.11;57.91
80693;BME280;70055;39.436;-77.514;2023-09-08T10:35:53;99171.37;;;20.75;56.77
80693;BME280;70055;39.436;-77.514;2023-09-08T10:38:23;99172.56;;;21.16;55.97
80693;BME280;70055;39.436;-77.514;2023-09-08T10:40:53;99172.98;;;20.10;59.32
80693;BME280;70055;39.436;-77.514;2023-09-08T10:43:24;99160.17;;;20.61;57.59
80693;BME280;70055;39.436;-77.514;2023-09-08T10:45:52;99150.00;;;19.47;61.51
80693;BME280;70055;39.436;-77.514;2023-09-08T10:48:21;99139.61;;;19.51;62.00
80693;BME280;70055;39.436;-77.514;2023-09-08T10:50:49;99135.40;;;20.80;59.26
80693;BME280;70055;39.436;-77.514;2023-09-08T10:53:18;99136.49;;;20.69;59.61
80693;BME280;70055;39.436;-77.514;2023-09-08T10:55:48;99132.61;;;20.43;59.11
80693;BME280;70055;39.436;-77.514;2023-09-08T10:58:18;99126.57;;;20.94;59.23
80693;BME280;70055;39.436;-77.514;2023-09-08T11:00:47;99127.90;;;21.92;56.90
80693;BME280;70055;39.436;-77.514;2023-09-08T11:03:27;99133.58;;;21.85;56.40
80693;BME280;70055;39.436;-77.514;2023-09-08T11:05:56;99140.08;;;21.08;57.52
80693;BME280;70055;39.436;-77.514;2023-09-08T11:08:25;99145.53;;;21.27;57.11
80693;BME280;70055;39.436;-77.514;2023-09-08T11:10:52;99157.76;;;20.82;58.30
80693;BME280;70055;39.436;-77.514;2023-09-08T11:13:21;99168.29;;;20.20;60.38
80693;BME280;70055;39.436;-77.514;2023-09-08T11:15:51;99165.59;;;20.53;59.83
80693;BME280;70055;39.436;-77.514;2023-09-08T11:18:26;99170.34;;;20.14;61.30
80693;BME280;70055;39.436;-77.514;2023-09-08T11:20:54;99166.20;;;21.59;58.10
80693;BME280;70055;39.436;-77.514;2023-09-08T11:23:21;99169.20;;;20.89;58.91
80693;BME280;70055;39.436;-77.514;2023-09-08T11:25:51;99174.01;;;20.67;59.14
80693;BME280;70055;39.436;-77.514;2023-09-08T11:28:22;99172.63;;;21.54;57.91
80693;BME280;70055;39.436;-77.514;2023-09-08T11:30:51;99171.77;;;21.49;57.75
80693;BME280;70055;39.436;-77.514;2023-09-08T11:33:21;99167.85;;;21.28;57.71
80693;BME280;70055;39.436;-77.514;2023-09-08T11:35:49;99169.78;;;21.50;57.66
80693;BME280;70055;39.436;-77.514;2023-09-08T11:38:17;99181.38;;;21.01;58.82
80693;BME280;70055;39.436;-77.514;2023-09-08T11:40:46;99190.31;;;22.00;56.45
80693;BME280;70055;39.436;-77.514;2023-09-08T11:43:17;99197.50;;;22.23;56.31
80693;BME280;70055;39.436;-77.514;2023-09-08T11:45:45;99197.07;;;22.58;55.76
80693;BME280;70055;39.436;-77.514;2023-09-08T11:48:14;99197.44;;;22.52;56.60
80693;BME280;70055;39.436;-77.514;2023-09-08T11:50:43;99192.45;;;23.18;56.33
80693;BME280;70055;39.436;-77.514;2023-09-08T11:53:12;99198.43;;;23.08;56.17
80693;BME280;70055;39.436;-77.514;2023-09-08T11:55:40;99199.50;;;22.47;55.13
80693;BME280;70055;39.436;-77.514;2023-09-08T11:58:08;99200.23;;;23.56;54.97
80693;BME280;70055;39.436;-77.514;2023-09-08T12:00:37;99203.34;;;23.88;53.15
80693;BME280;70055;39.436;-77.514;2023-09-08T12:03:15;99208.77;;;24.78;52.62
80693;BME280;70055;39.436;-77.514;2023-09-08T12:05:44;99203.17;;;24.45;51.95
80693;BME280;70055;39.436;-77.514;2023-09-08T12:08:13;99198.45;;;25.09;51.11
80693;BME280;70055;39.436;-77.514;2023-09-08T12:10:41;99198.21;;;22.97;53.24
80693;BME280;70055;39.436;-77.514;2023-09-08T12:13:10;99199.64;;;24.01;53.29
80693;BME280;70055;39.436;-77.514;2023-09-08T12:15:39;99201.72;;;24.50;50.76
80693;BME280;70055;39.436;-77.514;2023-09-08T12:18:13;99200.95;;;23.29;54.79
80693;BME280;70055;39.436;-77.514;2023-09-08T12:20:42;99197.47;;;24.59;52.73
80693;BME280;70055;39.436;-77.514;2023-09-08T12:23:17;99192.25;;;25.73;49.74
80693;BME280;70055;39.436;-77.514;2023-09-08T12:25:47;99197.97;;;24.88;51.21
80693;BME280;70055;39.436;-77.514;2023-09-08T12:28:18;99198.29;;;25.84;49.97
80693;BME280;70055;39.436;-77.514;2023-09-08T12:30:48;99199.48;;;25.93;50.31
80693;BME280;70055;39.436;-77.514;2023-09-08T12:33:17;99202.84;;;25.73;49.68
80693;BME280;70055;39.436;-77.514;2023-09-08T12:35:46;99207.48;;;25.59;50.02
80693;BME280;70055;39.436;-77.514;2023-09-08T12:38:14;99209.14;;;25.78;50.55
80693;BME280;70055;39.436;-77.514;2023-09-08T12:40:42;99207.32;;;25.26;50.08
80693;BME280;70055;39.436;-77.514;2023-09-08T12:43:12;99206.56;;;26.80;49.38
80693;BME280;70055;39.436;-77.514;2023-09-08T12:45:40;99209.41;;;26.21;48.43
80693;BME280;70055;39.436;-77.514;2023-09-08T12:48:08;99210.05;;;26.78;49.32